createdAt,value
2018-07-04T00:00:11.036Z,61.85
2018-07-04T00:00:36.591Z,61.75
2018-07-04T00:01:02.172Z,61.75
2018-07-04T00:01:27.741Z,61.85
2018-07-04T00:01:53.325Z,61.26
2018-07-04T00:02:18.892Z,61.65
2018-07-04T00:02:44.476Z,61.46
2018-07-04T00:03:10.046Z,61.46
2018-07-04T00:03:35.637Z,61.55
2018-07-04T00:04:01.217Z,61.65
2018-07-04T00:04:26.788Z,61.75
2018-07-04T00:04:52.371Z,61.75
2018-07-04T00:05:17.930Z,61.17
2018-07-04T00:05:43.486Z,61.55
2018-07-04T00:06:09.029Z,61.36
2018-07-04T00:06:34.632Z,61.75
2018-07-04T00:07:00.206Z,61.55
2018-07-04T00:07:25.771Z,61.17
2018-07-04T00:07:51.337Z,61.26
2018-07-04T00:08:16.929Z,61.75
2018-07-04T00:08:42.482Z,61.65
2018-07-04T00:09:08.059Z,61.36
2018-07-04T00:09:33.659Z,61.17
2018-07-04T00:09:59.232Z,61.36
2018-07-04T00:10:24.817Z,61.17
2018-07-04T00:10:50.380Z,61.75
2018-07-04T00:11:15.940Z,61.55
2018-07-04T00:11:41.509Z,61.55
2018-07-04T00:12:07.077Z,61.55
2018-07-04T00:12:32.628Z,61.36
2018-07-04T00:12:58.182Z,61.46
2018-07-04T00:13:23.784Z,61.65
2018-07-04T00:13:49.395Z,61.55
2018-07-04T00:14:14.979Z,61.55
2018-07-04T00:14:40.556Z,61.55
2018-07-04T00:15:06.125Z,61.65
2018-07-04T00:15:31.685Z,61.75
2018-07-04T00:15:57.254Z,61.26
2018-07-04T00:16:22.825Z,61.17
2018-07-04T00:16:48.423Z,61.17
2018-07-04T00:17:13.995Z,61.26
2018-07-04T00:17:39.583Z,60.97
2018-07-04T00:18:05.180Z,60.78
2018-07-04T00:18:30.745Z,60.97
2018-07-04T00:18:56.330Z,60.78
2018-07-04T00:19:21.899Z,61.07
2018-07-04T00:19:47.476Z,60.97
2018-07-04T00:20:13.055Z,61.07
2018-07-04T00:20:38.623Z,60.97
2018-07-04T00:21:04.214Z,61.07
2018-07-04T00:21:29.791Z,61.07
2018-07-04T00:21:55.369Z,60.97
2018-07-04T00:22:20.947Z,60.97
2018-07-04T00:22:46.546Z,60.97
2018-07-04T00:23:12.113Z,61.36
2018-07-04T00:23:37.683Z,61.36
2018-07-04T00:24:03.248Z,61.26
2018-07-04T00:24:28.829Z,60.97
2018-07-04T00:24:54.402Z,61.07
2018-07-04T00:25:19.967Z,61.17
2018-07-04T00:25:45.639Z,61.17
2018-07-04T00:26:11.126Z,60.97
2018-07-04T00:26:36.706Z,61.17
2018-07-04T00:27:02.274Z,60.97
2018-07-04T00:27:27.846Z,60.97
2018-07-04T00:27:53.426Z,61.07
2018-07-04T00:28:18.999Z,61.36
2018-07-04T00:28:44.578Z,61.36
2018-07-04T00:29:10.151Z,61.26
2018-07-04T00:29:35.741Z,61.07
2018-07-04T00:30:01.321Z,61.17
2018-07-04T00:30:26.893Z,61.17
2018-07-04T00:30:52.449Z,61.17
2018-07-04T00:31:18.039Z,61.17
2018-07-04T00:31:43.642Z,61.17
2018-07-04T00:32:09.240Z,61.17
2018-07-04T00:32:34.839Z,61.17
2018-07-04T00:33:00.428Z,61.17
2018-07-04T00:33:26.021Z,61.36
2018-07-04T00:33:51.589Z,61.07
2018-07-04T00:34:17.139Z,61.26
2018-07-04T00:34:42.706Z,61.46
2018-07-04T00:35:08.259Z,61.26
2018-07-04T00:35:33.833Z,61.17
2018-07-04T00:35:59.415Z,61.26
2018-07-04T00:36:24.998Z,61.17
2018-07-04T00:36:50.543Z,61.36
2018-07-04T00:37:16.141Z,61.26
2018-07-04T00:37:41.693Z,61.17
2018-07-04T00:38:07.260Z,61.07
2018-07-04T00:38:32.858Z,60.78
2018-07-04T00:38:58.471Z,60.68
2018-07-04T00:39:24.083Z,61.36
2018-07-04T00:39:49.658Z,60.88
2018-07-04T00:40:15.222Z,60.78
2018-07-04T00:40:40.821Z,60.78
2018-07-04T00:41:06.392Z,60.88
2018-07-04T00:41:31.956Z,60.78
2018-07-04T00:41:57.544Z,60.88
2018-07-04T00:42:23.104Z,61.17
2018-07-04T00:42:48.688Z,61.07
2018-07-04T00:43:14.235Z,61.17
2018-07-04T00:43:39.805Z,60.88
2018-07-04T00:44:05.378Z,61.17
2018-07-04T00:44:30.932Z,60.97
2018-07-04T00:44:56.527Z,60.78
2018-07-04T00:45:22.102Z,61.07
2018-07-04T00:45:47.684Z,60.68
2018-07-04T00:46:13.225Z,60.88
2018-07-04T00:46:38.807Z,60.88
2018-07-04T00:47:04.350Z,60.88
2018-07-04T00:47:29.923Z,61.26
2018-07-04T00:47:55.478Z,61.17
2018-07-04T00:48:21.061Z,61.07
2018-07-04T00:48:46.621Z,60.58
2018-07-04T00:49:12.184Z,60.68
2018-07-04T00:49:37.747Z,60.68
2018-07-04T00:50:03.319Z,60.78
2018-07-04T00:50:28.897Z,61.17
2018-07-04T00:50:54.480Z,61.17
2018-07-04T00:51:20.041Z,60.97
2018-07-04T00:51:45.605Z,61.17
2018-07-04T00:52:11.196Z,61.17
2018-07-04T00:52:36.778Z,61.26
2018-07-04T00:53:02.335Z,61.17
2018-07-04T00:53:27.934Z,61.17
2018-07-04T00:53:53.519Z,61.17
2018-07-04T00:54:19.116Z,61.17
2018-07-04T00:54:44.669Z,61.17
2018-07-04T00:55:10.235Z,61.26
2018-07-04T00:55:35.822Z,61.36
2018-07-04T00:56:01.392Z,61.17
2018-07-04T00:56:26.947Z,61.17
2018-07-04T00:56:52.578Z,61.07
2018-07-04T00:57:18.125Z,61.17
2018-07-04T00:57:43.720Z,61.26
2018-07-04T00:58:09.320Z,61.26
2018-07-04T00:58:34.901Z,61.36
2018-07-04T00:59:00.467Z,61.26
2018-07-04T00:59:26.048Z,61.07
2018-07-04T00:59:51.631Z,60.97
2018-07-04T01:00:17.185Z,60.97
2018-07-04T01:00:42.753Z,60.88
2018-07-04T01:01:08.341Z,61.07
2018-07-04T01:01:33.924Z,61.17
2018-07-04T01:01:59.506Z,60.97
2018-07-04T01:02:25.087Z,60.97
2018-07-04T01:02:50.674Z,60.68
2018-07-04T01:03:16.246Z,60.68
2018-07-04T01:03:41.823Z,60.78
2018-07-04T01:04:07.393Z,60.97
2018-07-04T01:04:32.997Z,60.78
2018-07-04T01:04:58.568Z,60.88
2018-07-04T01:05:24.143Z,60.78
2018-07-04T01:05:49.705Z,60.58
2018-07-04T01:06:15.263Z,60.78
2018-07-04T01:06:40.828Z,60.78
2018-07-04T01:07:06.402Z,60.78
2018-07-04T01:07:31.966Z,60.78
2018-07-04T01:07:57.539Z,60.68
2018-07-04T01:08:23.093Z,60.78
2018-07-04T01:08:48.685Z,60.68
2018-07-04T01:09:14.269Z,60.68
2018-07-04T01:09:39.873Z,60.49
2018-07-04T01:10:05.437Z,60.49
2018-07-04T01:10:31.019Z,60.88
2018-07-04T01:10:56.645Z,60.78
2018-07-04T01:11:22.226Z,60.49
2018-07-04T01:11:47.821Z,60.68
2018-07-04T01:12:13.415Z,60.68
2018-07-04T01:12:38.991Z,60.78
2018-07-04T01:13:04.561Z,60.68
2018-07-04T01:13:30.122Z,60.78
2018-07-04T01:13:55.710Z,60.49
2018-07-04T01:14:21.309Z,60.39
2018-07-04T01:14:46.880Z,60.78
2018-07-04T01:15:12.460Z,60.68
2018-07-04T01:15:38.021Z,60.58
2018-07-04T01:16:03.588Z,60.78
2018-07-04T01:16:29.161Z,60.78
2018-07-04T01:16:54.740Z,60.88
2018-07-04T01:17:20.314Z,60.97
2018-07-04T01:17:45.894Z,60.88
2018-07-04T01:18:11.468Z,60.88
2018-07-04T01:18:37.027Z,60.97
2018-07-04T01:19:02.609Z,60.88
2018-07-04T01:19:28.199Z,60.97
2018-07-04T01:19:53.789Z,60.88
2018-07-04T01:20:19.370Z,60.97
2018-07-04T01:20:44.934Z,60.97
2018-07-04T01:21:10.515Z,60.88
2018-07-04T01:21:36.099Z,60.88
2018-07-04T01:22:01.680Z,60.78
2018-07-04T01:22:27.251Z,60.97
2018-07-04T01:22:52.865Z,60.88
2018-07-04T01:23:18.451Z,60.97
2018-07-04T01:23:44.015Z,60.88
2018-07-04T01:24:09.594Z,60.88
2018-07-04T01:24:35.156Z,60.68
2018-07-04T01:25:00.724Z,60.78
2018-07-04T01:25:26.301Z,60.97
2018-07-04T01:25:51.864Z,60.88
2018-07-04T01:26:17.415Z,60.68
2018-07-04T01:26:43.005Z,60.49
2018-07-04T01:27:08.597Z,60.39
2018-07-04T01:27:34.160Z,60.3
2018-07-04T01:27:59.747Z,60.39
2018-07-04T01:28:25.303Z,60.88
2018-07-04T01:28:50.876Z,60
2018-07-04T01:29:16.455Z,60.49
2018-07-04T01:29:42.028Z,60.49
2018-07-04T01:30:07.605Z,60.2
2018-07-04T01:30:33.175Z,60.2
2018-07-04T01:30:58.767Z,60.49
2018-07-04T01:31:24.317Z,60.1
2018-07-04T01:31:49.901Z,60.1
2018-07-04T01:32:15.486Z,60.1
2018-07-04T01:32:41.065Z,60.3
2018-07-04T01:33:06.633Z,60.39
2018-07-04T01:33:32.220Z,60.39
2018-07-04T01:33:57.792Z,60.58
2018-07-04T01:34:23.392Z,60.3
2018-07-04T01:34:48.928Z,60.1
2018-07-04T01:35:14.499Z,60.3
2018-07-04T01:35:40.056Z,60.1
2018-07-04T01:36:05.619Z,60.2
2018-07-04T01:36:31.187Z,60.2
2018-07-04T01:36:56.758Z,60.1
2018-07-04T01:37:22.314Z,60.1
2018-07-04T01:37:47.883Z,60.39
2018-07-04T01:38:13.478Z,60.2
2018-07-04T01:38:39.091Z,60.49
2018-07-04T01:39:04.675Z,60.3
2018-07-04T01:39:30.240Z,60.2
2018-07-04T01:39:55.808Z,60.2
2018-07-04T01:40:21.410Z,60.1
2018-07-04T01:40:46.965Z,60.3
2018-07-04T01:41:12.524Z,60.1
2018-07-04T01:41:38.089Z,60.58
2018-07-04T01:42:03.660Z,60.3
2018-07-04T01:42:29.234Z,60.3
2018-07-04T01:42:54.776Z,60.49
2018-07-04T01:43:20.348Z,60.2
2018-07-04T01:43:45.916Z,60.49
2018-07-04T01:44:11.493Z,60
2018-07-04T01:44:37.081Z,60
2018-07-04T01:45:02.688Z,60.58
2018-07-04T01:45:28.294Z,60.58
2018-07-04T01:45:53.835Z,60.49
2018-07-04T01:46:19.414Z,60.39
2018-07-04T01:46:44.997Z,60.58
2018-07-04T01:47:10.578Z,60.58
2018-07-04T01:47:36.151Z,60.3
2018-07-04T01:48:01.710Z,60.1
2018-07-04T01:48:27.286Z,60.1
2018-07-04T01:48:52.873Z,60.1
2018-07-04T01:49:18.456Z,60.1
2018-07-04T01:49:44.022Z,60.1
2018-07-04T01:50:09.570Z,60.1
2018-07-04T01:50:35.140Z,60.49
2018-07-04T01:51:00.722Z,60.3
2018-07-04T01:51:26.291Z,60.1
2018-07-04T01:51:51.848Z,60
2018-07-04T01:52:17.405Z,60.2
2018-07-04T01:52:42.992Z,59.91
2018-07-04T01:53:08.603Z,60
2018-07-04T01:53:34.168Z,59.81
2018-07-04T01:53:59.758Z,60
2018-07-04T01:54:25.503Z,60.2
2018-07-04T01:54:52.012Z,60
2018-07-04T01:55:17.591Z,59.81
2018-07-04T01:55:43.154Z,60.1
2018-07-04T01:56:08.706Z,59.81
2018-07-04T01:56:34.270Z,59.71
2018-07-04T01:56:59.885Z,60
2018-07-04T01:57:25.469Z,59.81
2018-07-04T01:57:51.017Z,59.91
2018-07-04T01:58:16.581Z,60
2018-07-04T01:58:42.167Z,60
2018-07-04T01:59:07.743Z,60
2018-07-04T01:59:33.314Z,59.71
2018-07-04T01:59:58.897Z,59.61
2018-07-04T02:00:24.476Z,60
2018-07-04T02:00:50.049Z,60
2018-07-04T02:01:15.658Z,59.81
2018-07-04T02:01:41.221Z,60
2018-07-04T02:02:06.779Z,59.71
2018-07-04T02:02:32.345Z,59.71
2018-07-04T02:02:57.899Z,60
2018-07-04T02:03:23.494Z,59.61
2018-07-04T02:03:49.095Z,59.71
2018-07-04T02:04:14.664Z,59.61
2018-07-04T02:04:40.221Z,59.81
2018-07-04T02:05:05.793Z,59.61
2018-07-04T02:05:31.390Z,59.61
2018-07-04T02:05:56.990Z,60
2018-07-04T02:06:22.571Z,59.91
2018-07-04T02:06:48.173Z,59.71
2018-07-04T02:07:13.738Z,59.81
2018-07-04T02:07:39.306Z,59.61
2018-07-04T02:08:04.886Z,59.61
2018-07-04T02:08:30.448Z,59.71
2018-07-04T02:08:55.989Z,59.91
2018-07-04T02:09:21.552Z,59.71
2018-07-04T02:09:47.105Z,59.81
2018-07-04T02:10:12.687Z,59.81
2018-07-04T02:10:38.236Z,59.91
2018-07-04T02:11:03.797Z,59.81
2018-07-04T02:11:29.376Z,59.71
2018-07-04T02:11:54.949Z,59.71
2018-07-04T02:12:20.514Z,59.81
2018-07-04T02:12:46.096Z,59.61
2018-07-04T02:13:11.664Z,59.81
2018-07-04T02:13:37.232Z,59.81
2018-07-04T02:14:02.847Z,59.71
2018-07-04T02:14:28.394Z,59.71
2018-07-04T02:14:53.975Z,59.71
2018-07-04T02:15:19.551Z,59.81
2018-07-04T02:15:45.140Z,59.61
2018-07-04T02:16:10.700Z,59.71
2018-07-04T02:16:36.319Z,59.81
2018-07-04T02:17:01.876Z,59.52
2018-07-04T02:17:27.483Z,59.71
2018-07-04T02:17:53.045Z,59.61
2018-07-04T02:18:18.602Z,59.61
2018-07-04T02:18:44.149Z,59.71
2018-07-04T02:19:09.780Z,59.61
2018-07-04T02:19:35.351Z,59.81
2018-07-04T02:20:00.920Z,59.71
2018-07-04T02:20:26.491Z,59.81
2018-07-04T02:20:52.087Z,59.91
2018-07-04T02:21:17.653Z,59.71
2018-07-04T02:21:43.227Z,59.91
2018-07-04T02:22:08.773Z,59.91
2018-07-04T02:22:34.345Z,60
2018-07-04T02:22:59.914Z,59.42
2018-07-04T02:23:25.490Z,60
2018-07-04T02:23:51.072Z,60
2018-07-04T02:24:16.630Z,59.91
2018-07-04T02:24:42.220Z,59.91
2018-07-04T02:25:07.766Z,59.91
2018-07-04T02:25:33.350Z,59.91
2018-07-04T02:25:58.926Z,59.91
2018-07-04T02:26:24.489Z,59.71
2018-07-04T02:26:50.066Z,59.71
2018-07-04T02:27:15.623Z,59.91
2018-07-04T02:27:41.215Z,60
2018-07-04T02:28:06.778Z,59.71
2018-07-04T02:28:32.366Z,60
2018-07-04T02:28:57.939Z,60.1
2018-07-04T02:29:23.523Z,60.1
2018-07-04T02:29:49.078Z,60
2018-07-04T02:30:14.676Z,59.42
2018-07-04T02:30:40.239Z,59.52
2018-07-04T02:31:05.814Z,59.52
2018-07-04T02:31:31.378Z,60
2018-07-04T02:31:56.986Z,59.91
2018-07-04T02:32:22.556Z,59.52
2018-07-04T02:32:48.122Z,59.61
2018-07-04T02:33:13.688Z,59.81
2018-07-04T02:33:39.264Z,60
2018-07-04T02:34:04.824Z,59.52
2018-07-04T02:34:30.384Z,59.52
2018-07-04T02:34:55.978Z,59.42
2018-07-04T02:35:21.555Z,59.33
2018-07-04T02:35:47.111Z,59.52
2018-07-04T02:36:12.706Z,59.52
2018-07-04T02:36:38.309Z,59.52
2018-07-04T02:37:03.888Z,59.52
2018-07-04T02:37:29.507Z,59.52
2018-07-04T02:37:55.047Z,59.42
2018-07-04T02:38:20.614Z,59.52
2018-07-04T02:38:46.162Z,59.33
2018-07-04T02:39:11.732Z,59.42
2018-07-04T02:39:37.311Z,59.42
2018-07-04T02:40:02.878Z,59.42
2018-07-04T02:40:28.453Z,59.33
2018-07-04T02:40:54.069Z,59.42
2018-07-04T02:41:19.656Z,59.42
2018-07-04T02:41:45.236Z,59.13
2018-07-04T02:42:10.792Z,59.52
2018-07-04T02:42:36.380Z,59.42
2018-07-04T02:43:01.959Z,59.42
2018-07-04T02:43:27.542Z,59.52
2018-07-04T02:43:53.105Z,59.23
2018-07-04T02:44:18.675Z,59.23
2018-07-04T02:44:44.230Z,59.42
2018-07-04T02:45:09.803Z,59.42
2018-07-04T02:45:35.364Z,59.61
2018-07-04T02:46:00.928Z,59.52
2018-07-04T02:46:26.496Z,59.42
2018-07-04T02:46:52.050Z,59.42
2018-07-04T02:47:17.634Z,59.42
2018-07-04T02:47:43.227Z,59.42
2018-07-04T02:48:08.801Z,59.71
2018-07-04T02:48:34.957Z,59.52
2018-07-04T02:48:59.920Z,59.61
2018-07-04T02:49:25.505Z,59.61
2018-07-04T02:49:51.075Z,59.61
2018-07-04T02:50:16.626Z,59.52
2018-07-04T02:50:42.218Z,59.42
2018-07-04T02:51:07.800Z,59.61
2018-07-04T02:51:33.340Z,59.52
2018-07-04T02:51:58.921Z,59.42
2018-07-04T02:52:24.468Z,59.52
2018-07-04T02:52:50.032Z,59.61
2018-07-04T02:53:15.626Z,59.61
2018-07-04T02:53:41.196Z,59.61
2018-07-04T02:54:06.874Z,59.61
2018-07-04T02:54:32.456Z,59.42
2018-07-04T02:54:58.022Z,59.23
2018-07-04T02:55:23.592Z,59.52
2018-07-04T02:55:49.170Z,59.52
2018-07-04T02:56:14.750Z,59.61
2018-07-04T02:56:40.316Z,59.42
2018-07-04T02:57:05.873Z,59.52
2018-07-04T02:57:31.456Z,59.71
2018-07-04T02:57:57.040Z,59.61
2018-07-04T02:58:22.607Z,59.42
2018-07-04T02:58:48.190Z,59.42
2018-07-04T02:59:13.744Z,59.61
2018-07-04T02:59:39.289Z,59.52
2018-07-04T03:00:04.832Z,59.61
2018-07-04T03:00:30.418Z,59.52
2018-07-04T03:00:55.986Z,59.61
2018-07-04T03:01:21.550Z,59.52
2018-07-04T03:01:47.129Z,59.42
2018-07-04T03:02:12.726Z,59.42
2018-07-04T03:02:38.283Z,59.52
2018-07-04T03:03:03.831Z,59.52
2018-07-04T03:03:29.404Z,59.33
2018-07-04T03:03:54.966Z,59.52
2018-07-04T03:04:20.528Z,59.13
2018-07-04T03:04:46.113Z,59.42
2018-07-04T03:05:11.685Z,59.13
2018-07-04T03:05:38.472Z,59.13
2018-07-04T03:06:02.806Z,59.33
2018-07-04T03:06:28.401Z,59.52
2018-07-04T03:06:53.951Z,59.13
2018-07-04T03:07:19.547Z,59.23
2018-07-04T03:07:45.105Z,59.23
2018-07-04T03:08:10.673Z,59.52
2018-07-04T03:08:36.229Z,59.23
2018-07-04T03:09:01.808Z,59.13
2018-07-04T03:09:27.380Z,59.42
2018-07-04T03:09:52.929Z,59.42
2018-07-04T03:10:18.496Z,59.33
2018-07-04T03:10:44.064Z,59.61
2018-07-04T03:11:09.642Z,59.42
2018-07-04T03:11:35.238Z,59.33
2018-07-04T03:12:00.806Z,59.42
2018-07-04T03:12:26.400Z,59.13
2018-07-04T03:12:51.960Z,59.33
2018-07-04T03:13:17.520Z,59.52
2018-07-04T03:13:43.094Z,59.42
2018-07-04T03:14:08.649Z,59.42
2018-07-04T03:14:34.250Z,59.42
2018-07-04T03:14:59.817Z,59.23
2018-07-04T03:15:25.381Z,59.13
2018-07-04T03:15:50.953Z,59.13
2018-07-04T03:16:16.526Z,58.84
2018-07-04T03:16:42.096Z,59.13
2018-07-04T03:17:07.676Z,59.13
2018-07-04T03:17:33.246Z,59.13
2018-07-04T03:17:58.797Z,59.23
2018-07-04T03:18:24.366Z,59.03
2018-07-04T03:18:49.968Z,59.13
2018-07-04T03:19:15.506Z,59.13
2018-07-04T03:19:41.090Z,58.74
2018-07-04T03:20:06.644Z,59.13
2018-07-04T03:20:32.250Z,59.23
2018-07-04T03:20:57.826Z,59.23
2018-07-04T03:21:23.414Z,59.23
2018-07-04T03:21:49.005Z,59.23
2018-07-04T03:22:14.583Z,58.94
2018-07-04T03:22:40.166Z,59.13
2018-07-04T03:23:05.738Z,59.13
2018-07-04T03:23:31.309Z,59.03
2018-07-04T03:23:56.916Z,59.33
2018-07-04T03:24:22.469Z,58.84
2018-07-04T03:24:48.029Z,59.03
2018-07-04T03:25:13.592Z,58.94
2018-07-04T03:25:39.192Z,58.94
2018-07-04T03:26:04.764Z,59.03
2018-07-04T03:26:30.338Z,58.84
2018-07-04T03:26:55.936Z,59.23
2018-07-04T03:27:21.522Z,59.23
2018-07-04T03:27:47.108Z,59.13
2018-07-04T03:28:12.677Z,59.03
2018-07-04T03:28:38.232Z,59.03
2018-07-04T03:29:03.827Z,58.94
2018-07-04T03:29:29.428Z,59.13
2018-07-04T03:29:55.008Z,58.94
2018-07-04T03:30:20.576Z,59.03
2018-07-04T03:30:46.138Z,59.03
2018-07-04T03:31:11.715Z,59.03
2018-07-04T03:31:37.285Z,58.94
2018-07-04T03:32:02.864Z,58.94
2018-07-04T03:32:28.406Z,59.13
2018-07-04T03:32:53.987Z,58.94
2018-07-04T03:33:19.528Z,59.03
2018-07-04T03:33:45.096Z,58.94
2018-07-04T03:34:10.666Z,59.23
2018-07-04T03:34:36.233Z,59.23
2018-07-04T03:35:01.808Z,58.94
2018-07-04T03:35:27.404Z,58.94
2018-07-04T03:35:53.000Z,59.13
2018-07-04T03:36:18.572Z,59.13
2018-07-04T03:36:44.131Z,59.03
2018-07-04T03:37:09.708Z,58.84
2018-07-04T03:37:35.300Z,58.94
2018-07-04T03:38:00.853Z,59.23
2018-07-04T03:38:26.417Z,58.94
2018-07-04T03:38:51.998Z,59.13
2018-07-04T03:39:17.548Z,58.94
2018-07-04T03:39:43.128Z,58.94
2018-07-04T03:40:08.692Z,58.65
2018-07-04T03:40:34.288Z,58.65
2018-07-04T03:40:59.848Z,58.74
2018-07-04T03:41:25.421Z,58.55
2018-07-04T03:41:50.984Z,58.65
2018-07-04T03:42:16.558Z,58.65
2018-07-04T03:42:42.142Z,59.13
2018-07-04T03:43:07.706Z,58.94
2018-07-04T03:43:33.284Z,58.65
2018-07-04T03:43:58.896Z,58.55
2018-07-04T03:44:24.459Z,58.84
2018-07-04T03:44:50.027Z,58.65
2018-07-04T03:45:15.619Z,58.65
2018-07-04T03:45:41.196Z,59.03
2018-07-04T03:46:06.763Z,58.94
2018-07-04T03:46:32.343Z,58.65
2018-07-04T03:46:57.997Z,58.65
2018-07-04T03:47:23.544Z,58.94
2018-07-04T03:47:49.100Z,58.65
2018-07-04T03:48:14.679Z,58.74
2018-07-04T03:48:40.242Z,58.65
2018-07-04T03:49:05.898Z,58.65
2018-07-04T03:49:31.456Z,59.03
2018-07-04T03:49:57.023Z,58.74
2018-07-04T03:50:22.597Z,58.65
2018-07-04T03:50:48.164Z,58.84
2018-07-04T03:51:13.747Z,58.84
2018-07-04T03:51:39.312Z,59.03
2018-07-04T03:52:04.891Z,58.84
2018-07-04T03:52:30.457Z,58.65
2018-07-04T03:52:56.029Z,58.84
2018-07-04T03:53:21.594Z,59.03
2018-07-04T03:53:47.188Z,58.94
2018-07-04T03:54:45.761Z,58.84
2018-07-04T03:55:49.401Z,58.84
2018-07-04T03:56:14.950Z,58.94
2018-07-04T03:56:40.530Z,58.84
2018-07-04T03:57:06.108Z,58.65
2018-07-04T03:57:31.678Z,58.55
2018-07-04T03:57:57.248Z,58.55
2018-07-04T03:58:22.826Z,58.74
2018-07-04T03:58:48.403Z,58.74
2018-07-04T03:59:13.959Z,58.84
2018-07-04T03:59:39.522Z,58.74
2018-07-04T04:00:05.087Z,58.74
2018-07-04T04:00:30.644Z,58.84
2018-07-04T04:00:56.220Z,58.65
2018-07-04T04:01:21.798Z,58.84
2018-07-04T04:01:47.351Z,58.55
2018-07-04T04:02:12.944Z,58.84
2018-07-04T04:02:38.499Z,58.74
2018-07-04T04:03:04.070Z,58.65
2018-07-04T04:03:29.658Z,58.65
2018-07-04T04:03:55.226Z,58.74
2018-07-04T04:04:20.815Z,58.74
2018-07-04T04:04:46.402Z,58.84
2018-07-04T04:05:11.968Z,58.45
2018-07-04T04:05:37.534Z,58.84
2018-07-04T04:06:03.111Z,58.74
2018-07-04T04:06:28.664Z,58.84
2018-07-04T04:06:54.233Z,58.74
2018-07-04T04:07:19.856Z,58.84
2018-07-04T04:07:45.391Z,58.74
2018-07-04T04:08:10.960Z,58.65
2018-07-04T04:08:36.532Z,58.55
2018-07-04T04:09:02.096Z,58.45
2018-07-04T04:09:27.658Z,58.65
2018-07-04T04:09:53.219Z,58.45
2018-07-04T04:10:18.784Z,58.84
2018-07-04T04:10:44.330Z,58.74
2018-07-04T04:11:09.908Z,58.65
2018-07-04T04:11:35.459Z,58.65
2018-07-04T04:12:01.032Z,58.74
2018-07-04T04:12:26.603Z,58.84
2018-07-04T04:12:52.154Z,58.65
2018-07-04T04:13:17.708Z,58.55
2018-07-04T04:13:43.265Z,58.65
2018-07-04T04:14:08.857Z,58.74
2018-07-04T04:14:34.421Z,58.74
2018-07-04T04:15:00.014Z,58.65
2018-07-04T04:15:25.566Z,58.65
2018-07-04T04:15:51.129Z,59.13
2018-07-04T04:16:16.731Z,58.74
2018-07-04T04:16:42.291Z,58.84
2018-07-04T04:17:07.852Z,58.65
2018-07-04T04:17:33.408Z,58.84
2018-07-04T04:17:58.973Z,58.65
2018-07-04T04:18:24.536Z,58.84
2018-07-04T04:18:50.110Z,58.74
2018-07-04T04:19:15.701Z,59.03
2018-07-04T04:19:41.235Z,58.74
2018-07-04T04:20:06.797Z,58.74
2018-07-04T04:20:32.372Z,58.94
2018-07-04T04:20:57.933Z,59.13
2018-07-04T04:21:23.496Z,59.13
2018-07-04T04:21:49.041Z,59.23
2018-07-04T04:22:14.613Z,59.03
2018-07-04T04:22:40.198Z,59.13
2018-07-04T04:23:05.756Z,59.23
2018-07-04T04:23:31.336Z,59.23
2018-07-04T04:23:56.907Z,58.94
2018-07-04T04:24:22.508Z,59.03
2018-07-04T04:24:48.114Z,58.84
2018-07-04T04:25:13.712Z,59.13
2018-07-04T04:25:39.269Z,58.94
2018-07-04T04:26:04.840Z,59.23
2018-07-04T04:26:30.399Z,59.33
2018-07-04T04:26:55.967Z,59.03
2018-07-04T04:27:21.540Z,59.03
2018-07-04T04:27:47.117Z,59.33
2018-07-04T04:28:12.716Z,58.74
2018-07-04T04:28:38.284Z,59.42
2018-07-04T04:29:03.840Z,58.94
2018-07-04T04:29:29.414Z,59.13
2018-07-04T04:29:54.974Z,59.03
2018-07-04T04:30:20.541Z,59.33
2018-07-04T04:30:46.113Z,59.13
2018-07-04T04:31:11.665Z,58.94
2018-07-04T04:31:37.250Z,59.33
2018-07-04T04:32:02.812Z,58.74
2018-07-04T04:32:28.411Z,58.84
2018-07-04T04:32:53.980Z,59.13
2018-07-04T04:33:19.507Z,58.84
2018-07-04T04:33:45.103Z,59
2018-07-04T04:34:10.626Z,59.33
2018-07-04T04:34:36.214Z,58.74
2018-07-04T04:35:01.773Z,59.03
2018-07-04T04:35:27.330Z,59.13
2018-07-04T04:35:52.909Z,59.42
2018-07-04T04:36:18.534Z,58.84
2018-07-04T04:36:44.066Z,59.03
2018-07-04T04:37:09.626Z,58.74
2018-07-04T04:37:35.200Z,59.23
2018-07-04T04:38:00.766Z,58.94
2018-07-04T04:38:26.303Z,59.03
2018-07-04T04:38:51.877Z,58.65
2018-07-04T04:39:17.464Z,58.84
2018-07-04T04:39:43.024Z,58.94
2018-07-04T04:40:08.617Z,59.42
2018-07-04T04:40:34.178Z,58.94
2018-07-04T04:40:59.732Z,58.94
2018-07-04T04:41:25.306Z,59.03
2018-07-04T04:41:50.892Z,58.94
2018-07-04T04:42:16.451Z,59.03
2018-07-04T04:42:42.006Z,59.13
2018-07-04T04:43:07.576Z,58.94
2018-07-04T04:43:33.183Z,58.94
2018-07-04T04:43:58.786Z,59.33
2018-07-04T04:44:24.348Z,58.94
2018-07-04T04:44:49.936Z,59.03
2018-07-04T04:45:15.510Z,59.03
2018-07-04T04:45:41.091Z,58.65
2018-07-04T04:46:06.647Z,59.03
2018-07-04T04:46:32.199Z,59.33
2018-07-04T04:46:57.769Z,59.42
2018-07-04T04:47:23.326Z,58.74
2018-07-04T04:47:48.914Z,59.03
2018-07-04T04:48:14.514Z,59.42
2018-07-04T04:48:40.106Z,58.94
2018-07-04T04:49:05.702Z,58.65
2018-07-04T04:49:31.254Z,59.13
2018-07-04T04:49:56.818Z,58.94
2018-07-04T04:50:22.406Z,59.03
2018-07-04T04:50:47.990Z,58.94
2018-07-04T04:51:13.546Z,59.03
2018-07-04T04:51:39.110Z,59.03
2018-07-04T04:52:04.681Z,58.94
2018-07-04T04:52:30.243Z,58.74
2018-07-04T04:52:55.801Z,58.74
2018-07-04T04:53:21.412Z,59.03
2018-07-04T04:53:46.984Z,58.74
2018-07-04T04:54:55.765Z,59.03
2018-07-04T04:55:21.366Z,58.65
2018-07-04T04:57:28.712Z,59.13
2018-07-04T04:57:54.286Z,58.84
2018-07-04T04:58:19.889Z,58.74
2018-07-04T04:58:45.457Z,58.94
2018-07-04T04:59:11.014Z,58.74
2018-07-04T04:59:36.576Z,58.74
2018-07-04T05:00:02.155Z,58.91
2018-07-04T05:00:27.718Z,58.84
2018-07-04T05:00:53.276Z,59.03
2018-07-04T05:01:18.844Z,58.65
2018-07-04T05:01:44.422Z,58.84
2018-07-04T05:02:09.994Z,58.65
2018-07-04T05:02:35.563Z,58.74
2018-07-04T05:03:01.144Z,58.74
2018-07-04T05:03:26.702Z,58.94
2018-07-04T05:03:52.274Z,58.84
2018-07-04T05:04:17.875Z,59.42
2018-07-04T05:04:43.442Z,58.65
2018-07-04T05:05:09.000Z,58.94
2018-07-04T05:05:34.579Z,58.84
2018-07-04T05:06:00.153Z,58.84
2018-07-04T05:06:25.717Z,58.74
2018-07-04T05:06:51.279Z,58.74
2018-07-04T05:07:16.872Z,58.74
2018-07-04T05:07:42.464Z,58.74
2018-07-04T05:08:08.089Z,58.84
2018-07-04T05:08:33.672Z,58.74
2018-07-04T05:08:59.238Z,58.84
2018-07-04T05:09:24.783Z,58.94
2018-07-04T05:09:50.349Z,58.65
2018-07-04T05:10:15.920Z,58.65
2018-07-04T05:10:41.474Z,58.55
2018-07-04T05:11:07.055Z,58.74
2018-07-04T05:11:32.630Z,58.55
2018-07-04T05:11:58.205Z,58.94
2018-07-04T05:12:23.745Z,58.94
2018-07-04T05:12:49.327Z,59.03
2018-07-04T05:13:14.868Z,58.65
2018-07-04T05:13:40.432Z,58.65
2018-07-04T05:14:05.994Z,58.62
2018-07-04T05:14:31.588Z,58.94
2018-07-04T05:14:57.165Z,59.03
2018-07-04T05:15:22.727Z,58.94
2018-07-04T05:15:48.287Z,58.84
2018-07-04T05:16:13.888Z,58.84
2018-07-04T05:16:39.467Z,58.94
2018-07-04T05:17:05.037Z,58.55
2018-07-04T05:17:30.608Z,58.74
2018-07-04T05:17:56.165Z,58.65
2018-07-04T05:18:21.737Z,58.65
2018-07-04T05:18:47.320Z,58.55
2018-07-04T05:19:12.867Z,58.55
2018-07-04T05:19:38.472Z,58.65
2018-07-04T05:20:04.034Z,58.55
2018-07-04T05:20:29.635Z,58.74
2018-07-04T05:20:55.244Z,59.03
2018-07-04T05:21:20.792Z,58.65
2018-07-04T05:21:46.354Z,58.65
2018-07-04T05:22:11.938Z,58.55
2018-07-04T05:22:37.513Z,58.74
2018-07-04T05:23:03.082Z,58.55
2018-07-04T05:23:28.651Z,58.65
2018-07-04T05:23:54.244Z,58.74
2018-07-04T05:24:19.819Z,58.94
2018-07-04T05:24:45.364Z,58.74
2018-07-04T05:25:10.934Z,59.03
2018-07-04T05:25:36.490Z,58.55
2018-07-04T05:26:02.059Z,58.74
2018-07-04T05:26:27.654Z,59.03
2018-07-04T05:26:53.208Z,58.84
2018-07-04T05:27:18.852Z,58.84
2018-07-04T05:27:44.412Z,59.23
2018-07-04T05:28:10.026Z,58.94
2018-07-04T05:28:35.560Z,58.94
2018-07-04T05:29:01.128Z,58.94
2018-07-04T05:29:26.718Z,59.03
2018-07-04T05:29:52.255Z,58.94
2018-07-04T05:30:17.840Z,58.84
2018-07-04T05:30:43.415Z,58.94
2018-07-04T05:31:08.979Z,59.23
2018-07-04T05:31:34.555Z,59.13
2018-07-04T05:32:00.124Z,58.94
2018-07-04T05:32:25.678Z,59.13
2018-07-04T05:32:51.280Z,59.23
2018-07-04T05:33:16.849Z,59.23
2018-07-04T05:33:42.447Z,59.33
2018-07-04T05:34:08.022Z,59.52
2018-07-04T05:34:33.607Z,59.42